Time;durP1;ratioP1;P1;durP2;ratioP2;P2;SDS_P1;SDS_P2;PMS_P1;PMS_P2;Temp;Humidity;BMP_temperature;BMP_pressure;BME280_temperature;BME280_humidity;BME280_pressure;Samples;Min_cycle;Max_cycle;Signal;HPM_P1;HPM_P2
2023/12/20 00:00:21;;;;;;;5.50;2.80;;;6.70;10.00;;;;;;4982548;28;20485;-69
2023/12/20 00:02:48;;;;;;;6.17;2.93;;;6.70;10.00;;;;;;4986240;28;20476;-69
2023/12/20 00:05:15;;;;;;;5.10;2.67;;;6.70;10.10;;;;;;4988012;28;20464;-69
2023/12/20 00:07:41;;;;;;;5.07;2.40;;;6.70;10.30;;;;;;4987648;28;20465;-69
2023/12/20 00:10:09;;;;;;;5.83;2.90;;;6.70;10.20;;;;;;4985498;28;20479;-69
2023/12/20 00:12:35;;;;;;;5.33;2.67;;;6.70;10.30;;;;;;4987212;28;20456;-69
2023/12/20 00:15:04;;;;;;;8.37;2.90;;;6.70;10.40;;;;;;4989531;28;20986;-69
2023/12/20 00:17:30;;;;;;;4.20;2.30;;;6.80;10.50;;;;;;4985053;28;20481;-68
2023/12/20 00:19:57;;;;;;;5.90;3.00;;;6.80;10.50;;;;;;4988758;28;20488;-68
2023/12/20 00:22:24;;;;;;;4.73;2.30;;;6.80;10.30;;;;;;4984195;28;20977;-69
2023/12/20 00:24:51;;;;;;;4.60;2.00;;;6.80;10.60;;;;;;4985150;28;20468;-69
2023/12/20 00:27:17;;;;;;;4.47;2.10;;;6.80;10.80;;;;;;4991213;28;20461;-68
2023/12/20 00:29:47;;;;;;;6.70;2.80;;;6.80;10.90;;;;;;4988249;28;20489;-68
2023/12/20 00:32:15;;;;;;;5.80;2.70;;;6.80;10.80;;;;;;4987362;28;20488;-68
2023/12/20 00:34:42;;;;;;;8.43;3.27;;;6.80;10.90;;;;;;4989715;28;20464;-68
2023/12/20 00:37:09;;;;;;;6.93;2.60;;;6.80;11.00;;;;;;4988271;28;21150;-68
2023/12/20 00:39:36;;;;;;;5.50;2.60;;;6.70;11.10;;;;;;4984823;28;20483;-68
2023/12/20 00:42:02;;;;;;;5.03;2.40;;;6.80;11.10;;;;;;4986413;28;20829;-68
2023/12/20 00:44:29;;;;;;;5.40;2.77;;;6.80;11.30;;;;;;4989862;28;20890;-69
2023/12/20 00:46:56;;;;;;;5.20;2.40;;;6.80;11.30;;;;;;4991597;28;20468;-69
2023/12/20 00:49:24;;;;;;;5.80;2.83;;;6.80;11.40;;;;;;4984474;28;21052;-69
2023/12/20 00:51:52;;;;;;;6.50;3.10;;;6.80;11.50;;;;;;4985560;28;20485;-68
2023/12/20 00:54:19;;;;;;;5.30;2.30;;;6.80;11.60;;;;;;4986123;28;20497;-69
2023/12/20 00:56:46;;;;;;;4.90;2.50;;;6.80;12.20;;;;;;4989582;28;21167;-69
2023/12/20 00:59:12;;;;;;;5.30;2.83;;;6.80;11.80;;;;;;4988090;28;20486;-69
2023/12/20 01:01:39;;;;;;;4.90;2.83;;;6.80;11.90;;;;;;4985054;28;20473;-69
2023/12/20 01:04:06;;;;;;;5.77;2.93;;;6.80;12.00;;;;;;4985967;28;20476;-69
2023/12/20 01:06:34;;;;;;;5.07;2.40;;;6.80;12.00;;;;;;4985159;28;21369;-69
2023/12/20 01:09:00;;;;;;;5.67;3.30;;;6.80;11.90;;;;;;4983001;28;20489;-69
2023/12/20 01:11:27;;;;;;;5.10;2.47;;;6.80;11.90;;;;;;4989616;28;20523;-69
2023/12/20 01:13:54;;;;;;;6.47;2.63;;;6.80;12.00;;;;;;4988348;28;20461;-68
2023/12/20 01:16:20;;;;;;;5.00;2.70;;;6.70;12.20;;;;;;4988943;28;20758;-69
2023/12/20 01:18:47;;;;;;;6.00;2.80;;;6.70;12.40;;;;;;4985937;28;20488;-70
2023/12/20 01:21:14;;;;;;;4.97;2.50;;;6.70;12.60;;;;;;4987967;28;20849;-69
2023/12/20 01:23:42;;;;;;;5.70;2.60;;;6.70;12.90;;;;;;4986879;28;20468;-68
2023/12/20 01:26:08;;;;;;;4.43;2.27;;;6.70;13.20;;;;;;4984869;28;20465;-68
2023/12/20 01:28:35;;;;;;;5.00;2.33;;;6.70;13.40;;;;;;4985591;28;20464;-68
2023/12/20 01:31:02;;;;;;;5.60;3.00;;;6.70;13.50;;;;;;4980823;28;20750;-69
2023/12/20 01:33:28;;;;;;;6.13;2.60;;;6.70;13.90;;;;;;4986095;28;21024;-68
2023/12/20 01:35:55;;;;;;;5.33;2.60;;;6.70;14.10;;;;;;4983249;28;20464;-68
2023/12/20 01:38:21;;;;;;;5.40;2.80;;;6.70;14.30;;;;;;4984483;28;20464;-68
2023/12/20 01:40:49;;;;;;;5.60;3.00;;;6.70;14.60;;;;;;4987107;28;20472;-68
2023/12/20 01:43:16;;;;;;;5.30;2.30;;;6.70;14.80;;;;;;4987601;28;20289;-69
2023/12/20 01:45:42;;;;;;;5.50;2.70;;;6.70;15.00;;;;;;4985957;28;20461;-68
2023/12/20 01:48:10;;;;;;;4.60;2.50;;;6.70;15.20;;;;;;4985556;28;20469;-68
2023/12/20 01:50:38;;;;;;;4.83;2.50;;;6.70;15.40;;;;;;4979091;28;20844;-68
2023/12/20 01:53:08;;;;;;;5.20;2.77;;;6.60;15.70;;;;;;4982915;28;20464;-69
2023/12/20 01:55:39;;;;;;;5.17;3.07;;;6.70;16.00;;;;;;4982085;28;20501;-69
2023/12/20 01:58:07;;;;;;;5.50;2.73;;;6.60;16.20;;;;;;4986796;28;20480;-69
2023/12/20 02:00:34;;;;;;;5.87;2.37;;;6.60;16.20;;;;;;4985243;28;20465;-69
2023/12/20 02:03:02;;;;;;;5.20;2.60;;;6.60;16.50;;;;;;4983466;28;20504;-69
2023/12/20 02:05:30;;;;;;;5.30;2.90;;;6.60;16.80;;;;;;4983940;28;20520;-69
2023/12/20 02:07:57;;;;;;;6.20;2.73;;;6.60;17.00;;;;;;4984136;28;20458;-69
2023/12/20 02:10:24;;;;;;;5.27;3.03;;;6.60;17.20;;;;;;4986051;28;21038;-68
2023/12/20 02:12:51;;;;;;;5.70;2.90;;;6.60;17.40;;;;;;4986667;28;20828;-68
2023/12/20 02:15:22;;;;;;;5.13;2.77;;;6.60;17.40;;;;;;4986367;28;20472;-68
2023/12/20 02:17:49;;;;;;;5.70;3.10;;;6.60;17.50;;;;;;4985567;28;20999;-69
2023/12/20 02:20:16;;;;;;;5.50;3.10;;;6.60;17.60;;;;;;4984710;28;20484;-69
2023/12/20 02:22:44;;;;;;;5.17;2.70;;;6.60;17.80;;;;;;4985700;28;20465;-69
2023/12/20 02:25:11;;;;;;;5.13;2.80;;;6.60;18.10;;;;;;4982652;28;20495;-69
2023/12/20 02:27:38;;;;;;;7.20;2.90;;;6.60;18.10;;;;;;4987619;28;20465;-69
2023/12/20 02:30:05;;;;;;;6.83;3.17;;;6.50;18.40;;;;;;4979233;28;20524;-69
2023/12/20 02:32:32;;;;;;;5.67;3.13;;;6.50;18.50;;;;;;4983970;28;20480;-69
2023/12/20 02:34:59;;;;;;;6.23;2.93;;;6.50;18.70;;;;;;4986228;28;20496;-69
2023/12/20 02:37:26;;;;;;;6.17;3.20;;;6.50;18.70;;;;;;4984117;28;20473;-69
2023/12/20 02:39:54;;;;;;;5.10;2.70;;;6.50;18.90;;;;;;4983687;28;20488;-69
2023/12/20 02:42:20;;;;;;;8.20;2.83;;;6.50;19.10;;;;;;4986382;28;20504;-69
2023/12/20 02:44:47;;;;;;;5.53;2.53;;;6.50;19.20;;;;;;4985894;28;20472;-68
2023/12/20 02:47:14;;;;;;;4.60;2.50;;;6.50;19.30;;;;;;4987324;28;20472;-68
2023/12/20 02:49:41;;;;;;;5.63;3.23;;;6.50;19.50;;;;;;4987435;28;21051;-68
2023/12/20 02:52:07;;;;;;;6.00;3.20;;;6.50;19.70;;;;;;4991603;28;20483;-68
2023/12/20 02:54:34;;;;;;;5.10;2.67;;;6.50;19.80;;;;;;4990287;28;20469;-69
2023/12/20 02:57:02;;;;;;;6.37;3.57;;;6.50;19.80;;;;;;4989337;28;20510;-69
2023/12/20 02:59:29;;;;;;;5.53;3.03;;;6.50;19.90;;;;;;4989867;28;20484;-69
2023/12/20 03:01:56;;;;;;;5.30;2.87;;;6.50;20.00;;;;;;4988325;28;20474;-68
2023/12/20 03:04:22;;;;;;;8.57;3.10;;;6.50;20.10;;;;;;4990199;28;20483;-68
2023/12/20 03:06:49;;;;;;;5.57;2.90;;;6.50;20.20;;;;;;4987717;28;20469;-69
2023/12/20 03:09:16;;;;;;;5.80;2.60;;;6.50;20.40;;;;;;4987483;28;20491;-69
2023/12/20 03:11:43;;;;;;;9.73;3.47;;;6.50;20.40;;;;;;4990252;28;20488;-69
2023/12/20 03:14:11;;;;;;;6.17;2.93;;;6.50;20.70;;;;;;4990399;28;20852;-69
2023/12/20 03:16:38;;;;;;;5.60;3.20;;;6.50;20.60;;;;;;4987887;28;20508;-69
2023/12/20 03:19:04;;;;;;;5.90;3.17;;;6.50;20.90;;;;;;4988618;28;20495;-69
2023/12/20 03:21:31;;;;;;;5.97;3.37;;;6.50;21.00;;;;;;4992627;28;20459;-68
2023/12/20 03:23:58;;;;;;;7.97;3.10;;;6.50;21.00;;;;;;4987865;28;21032;-69
2023/12/20 03:26:24;;;;;;;5.40;3.10;;;6.50;21.00;;;;;;4988896;28;21032;-69
2023/12/20 03:28:51;;;;;;;5.07;3.10;;;6.50;21.20;;;;;;4986600;28;20500;-69
2023/12/20 03:31:20;;;;;;;8.43;3.40;;;6.50;21.40;;;;;;4981182;28;20481;-69
2023/12/20 03:33:47;;;;;;;6.20;3.17;;;6.50;21.40;;;;;;5003947;22;21018;-66
2023/12/20 03:36:14;;;;;;;6.60;3.10;;;6.40;21.50;;;;;;5028580;28;20473;-66
2023/12/20 03:38:41;;;;;;;6.57;2.70;;;6.50;21.60;;;;;;5030018;28;21226;-65
2023/12/20 03:41:08;;;;;;;6.80;3.60;;;6.50;21.60;;;;;;5028575;28;20455;-66
2023/12/20 03:43:35;;;;;;;4.90;2.20;;;6.50;21.70;;;;;;5028692;28;20543;-66
2023/12/20 03:46:03;;;;;;;5.83;3.33;;;6.50;22.10;;;;;;5028220;28;20466;-67
2023/12/20 03:48:31;;;;;;;6.03;3.23;;;6.50;22.10;;;;;;5024605;28;20467;-66
2023/12/20 03:50:58;;;;;;;5.53;3.13;;;6.50;22.50;;;;;;5028324;28;20462;-66
2023/12/20 03:53:25;;;;;;;8.17;3.57;;;6.50;22.40;;;;;;5032678;28;20494;-66
2023/12/20 03:55:51;;;;;;;6.40;2.80;;;6.50;22.70;;;;;;5024590;28;20462;-64
2023/12/20 03:58:18;;;;;;;5.67;2.77;;;6.50;22.70;;;;;;5025238;28;20863;-67
2023/12/20 04:00:45;;;;;;;5.97;2.80;;;6.50;22.90;;;;;;5027477;28;20490;-67
2023/12/20 04:03:13;;;;;;;6.00;2.90;;;6.50;23.00;;;;;;5027765;28;20566;-67
2023/12/20 04:05:41;;;;;;;5.80;2.67;;;6.50;23.20;;;;;;5024926;28;20839;-67
2023/12/20 04:08:08;;;;;;;5.40;2.60;;;6.50;23.30;;;;;;5024950;28;20466;-67
2023/12/20 04:10:35;;;;;;;5.10;2.63;;;6.50;23.60;;;;;;5026053;28;20487;-67
2023/12/20 04:13:02;;;;;;;7.10;3.20;;;6.50;23.60;;;;;;5031074;28;21028;-68
2023/12/20 04:15:28;;;;;;;5.30;2.40;;;6.50;23.80;;;;;;5025282;28;20466;-67
2023/12/20 04:17:55;;;;;;;5.20;2.53;;;6.50;24.00;;;;;;5027187;28;20827;-68
2023/12/20 04:20:22;;;;;;;6.03;2.73;;;6.50;24.10;;;;;;5030396;28;20483;-67
2023/12/20 04:22:50;;;;;;;5.43;2.40;;;6.50;24.40;;;;;;5025974;28;20892;-68
2023/12/20 04:25:16;;;;;;;4.53;2.30;;;6.50;24.40;;;;;;5025747;28;20463;-67
2023/12/20 04:27:43;;;;;;;4.77;2.40;;;6.50;24.60;;;;;;5028957;28;20993;-65
2023/12/20 04:30:11;;;;;;;5.67;2.90;;;6.50;24.80;;;;;;5023694;28;20489;-68
2023/12/20 04:32:37;;;;;;;9.33;2.90;;;6.50;24.90;;;;;;5029253;28;20475;-67
2023/12/20 04:35:05;;;;;;;5.70;3.27;;;6.60;25.10;;;;;;5021407;28;20476;-70
2023/12/20 04:37:32;;;;;;;5.00;2.63;;;6.60;25.20;;;;;;5031418;28;20458;-68
2023/12/20 04:40:00;;;;;;;4.73;2.37;;;6.60;25.70;;;;;;5023642;28;20990;-67
2023/12/20 04:42:26;;;;;;;5.77;2.53;;;6.60;25.70;;;;;;5028944;28;20452;-67
2023/12/20 04:44:53;;;;;;;4.63;2.20;;;6.60;25.80;;;;;;5032234;28;20474;-68
2023/12/20 04:47:20;;;;;;;4.90;2.60;;;6.60;25.90;;;;;;5028816;28;20913;-67
2023/12/20 04:49:46;;;;;;;6.17;2.93;;;6.70;26.10;;;;;;5025957;28;20768;-67
2023/12/20 04:52:13;;;;;;;5.47;2.87;;;6.70;26.10;;;;;;5022502;28;21034;-67
2023/12/20 04:54:40;;;;;;;5.43;2.50;;;6.70;26.10;;;;;;5028718;28;20790;-67
2023/12/20 04:57:08;;;;;;;5.90;2.83;;;6.70;26.30;;;;;;5021306;28;20467;-67
2023/12/20 04:59:34;;;;;;;6.37;3.07;;;6.70;26.50;;;;;;5024755;28;20486;-65
2023/12/20 05:02:01;;;;;;;4.50;2.10;;;6.70;26.60;;;;;;5025912;28;20471;-65
2023/12/20 05:04:28;;;;;;;5.60;2.93;;;6.70;26.70;;;;;;5026694;28;20455;-66
2023/12/20 05:06:55;;;;;;;4.90;2.33;;;6.70;26.90;;;;;;5028250;28;20995;-65
2023/12/20 05:09:21;;;;;;;4.73;2.70;;;6.70;27.00;;;;;;5018434;28;20479;-65
2023/12/20 05:11:48;;;;;;;6.43;2.43;;;6.70;27.00;;;;;;5024873;28;20466;-65
2023/12/20 05:14:16;;;;;;;5.33;2.53;;;6.70;27.10;;;;;;5028419;28;20464;-65
2023/12/20 05:16:43;;;;;;;6.27;3.40;;;6.70;27.30;;;;;;5022108;28;20474;-64
2023/12/20 05:19:10;;;;;;;6.03;2.50;;;6.70;27.40;;;;;;5043485;28;20882;-65
2023/12/20 05:21:36;;;;;;;4.83;2.23;;;6.70;27.50;;;;;;5041073;28;20471;-66
2023/12/20 05:24:03;;;;;;;5.07;2.50;;;6.70;27.60;;;;;;5025740;28;20470;-66
2023/12/20 05:26:30;;;;;;;4.60;2.37;;;6.70;27.50;;;;;;5019480;28;20486;-68
2023/12/20 05:28:57;;;;;;;4.23;1.93;;;6.70;27.50;;;;;;5025611;28;20612;-66
2023/12/20 05:31:25;;;;;;;9.70;3.00;;;6.70;27.60;;;;;;5022864;28;21010;-68
2023/12/20 05:33:52;;;;;;;5.23;2.30;;;6.70;27.80;;;;;;5023638;28;20553;-67
2023/12/20 05:36:19;;;;;;;4.90;2.10;;;6.70;27.80;;;;;;5019242;28;20477;-68
2023/12/20 05:38:46;;;;;;;5.10;2.10;;;6.70;27.80;;;;;;5025763;28;20494;-68
2023/12/20 05:41:13;;;;;;;5.93;2.17;;;6.70;27.90;;;;;;5024759;28;20471;-68
2023/12/20 05:43:40;;;;;;;5.33;3.30;;;6.70;27.90;;;;;;5027583;28;21028;-69
2023/12/20 05:46:06;;;;;;;5.50;2.40;;;6.70;28.10;;;;;;5025254;28;20470;-68
2023/12/20 05:48:34;;;;;;;5.20;2.90;;;6.80;28.10;;;;;;5024931;28;20973;-68
2023/12/20 05:51:01;;;;;;;5.37;2.47;;;6.80;28.10;;;;;;5021611;28;20467;-68
2023/12/20 05:53:28;;;;;;;5.70;2.87;;;6.70;28.40;;;;;;5023776;28;20497;-68
2023/12/20 05:55:55;;;;;;;5.57;2.80;;;6.80;28.40;;;;;;5025046;28;20597;-69
2023/12/20 05:58:21;;;;;;;5.40;2.83;;;6.80;28.40;;;;;;5024865;28;20470;-68
2023/12/20 06:00:48;;;;;;;5.13;2.37;;;6.80;28.50;;;;;;5024796;28;20478;-68
2023/12/20 06:03:15;;;;;;;4.97;2.63;;;6.80;28.60;;;;;;5024152;28;20544;-68
2023/12/20 06:05:43;;;;;;;5.40;2.90;;;6.80;28.70;;;;;;5021817;28;20840;-68
2023/12/20 06:08:10;;;;;;;8.80;3.67;;;6.80;28.70;;;;;;5024928;28;21493;-68
2023/12/20 06:10:36;;;;;;;6.90;3.07;;;6.80;28.80;;;;;;5025154;28;20479;-68
2023/12/20 06:13:04;;;;;;;5.30;3.17;;;6.80;28.80;;;;;;5026013;28;20497;-68
2023/12/20 06:15:31;;;;;;;5.70;3.03;;;6.80;28.90;;;;;;5026184;28;20551;-68
2023/12/20 06:17:58;;;;;;;5.77;3.00;;;6.80;28.70;;;;;;5023836;28;20474;-68
2023/12/20 06:20:24;;;;;;;6.37;3.60;;;6.80;28.70;;;;;;5023122;28;20478;-68
2023/12/20 06:22:52;;;;;;;6.60;3.53;;;6.80;28.80;;;;;;5030086;28;21262;-68
2023/12/20 06:25:19;;;;;;;6.33;3.97;;;6.80;28.90;;;;;;5028323;28;20483;-68
2023/12/20 06:27:46;;;;;;;6.40;4.10;;;6.80;28.70;;;;;;5026248;28;20959;-68
2023/12/20 06:30:13;;;;;;;7.60;4.40;;;6.80;28.70;;;;;;5023313;28;20491;-68
2023/12/20 06:32:42;;;;;;;8.60;4.70;;;6.80;28.60;;;;;;5036461;28;20483;-69
2023/12/20 06:35:09;;;;;;;6.00;3.73;;;6.80;28.60;;;;;;5034384;28;20470;-68
2023/12/20 06:37:36;;;;;;;8.30;4.23;;;6.80;28.60;;;;;;5027970;28;20459;-68
2023/12/20 06:40:05;;;;;;;7.77;4.47;;;6.80;28.50;;;;;;5029526;28;20490;-68
2023/12/20 06:42:31;;;;;;;8.00;4.40;;;6.80;28.60;;;;;;5032360;28;20481;-67
2023/12/20 06:44:58;;;;;;;6.57;4.30;;;6.80;28.60;;;;;;5033774;28;20461;-67
2023/12/20 06:47:26;;;;;;;7.80;5.07;;;6.80;28.50;;;;;;5026364;28;20464;-67
2023/12/20 06:49:52;;;;;;;9.57;5.47;;;6.80;28.60;;;;;;5031195;28;20494;-68
2023/12/20 06:52:19;;;;;;;7.47;5.63;;;6.80;28.50;;;;;;5029354;28;20470;-68
2023/12/20 06:54:46;;;;;;;8.27;5.43;;;6.80;28.50;;;;;;5032769;28;20890;-68
2023/12/20 06:57:14;;;;;;;9.57;4.90;;;6.80;28.50;;;;;;5031621;28;20459;-67
2023/12/20 06:59:42;;;;;;;8.30;5.17;;;6.80;28.70;;;;;;5028541;28;20505;-68
2023/12/20 07:02:09;;;;;;;8.13;5.30;;;6.80;28.50;;;;;;5030391;28;20487;-68
2023/12/20 07:04:40;;;;;;;9.00;5.53;;;6.80;28.50;;;;;;5030263;28;20466;-68
2023/12/20 07:07:07;;;;;;;8.00;5.20;;;6.80;28.60;;;;;;5025268;28;20467;-68
2023/12/20 07:09:34;;;;;;;9.37;5.23;;;6.80;28.70;;;;;;5026207;28;20494;-68
2023/12/20 07:12:01;;;;;;;8.90;5.10;;;6.80;28.70;;;;;;5030964;28;20462;-68
2023/12/20 07:14:29;;;;;;;7.73;4.97;;;6.80;28.80;;;;;;5028943;28;20872;-68
2023/12/20 07:16:55;;;;;;;7.47;5.23;;;6.70;28.90;;;;;;5027400;28;20494;-68
2023/12/20 07:19:22;;;;;;;8.73;5.40;;;6.70;29.10;;;;;;5027589;28;20487;-67
2023/12/20 07:21:49;;;;;;;9.00;5.40;;;6.70;29.00;;;;;;5030702;28;20480;-68
2023/12/20 07:24:15;;;;;;;9.30;5.33;;;6.70;29.10;;;;;;5024813;28;20468;-68
2023/12/20 07:26:42;;;;;;;8.10;5.17;;;6.70;29.30;;;;;;5026541;28;20471;-67
2023/12/20 07:29:09;;;;;;;8.60;5.47;;;6.70;29.20;;;;;;5021143;28;20492;-68
2023/12/20 07:31:38;;;;;;;8.60;5.30;;;6.70;29.10;;;;;;5026269;28;20616;-67
2023/12/20 07:34:05;;;;;;;8.47;5.20;;;6.70;29.40;;;;;;5022724;28;20487;-68
2023/12/20 07:36:32;;;;;;;8.77;5.87;;;6.70;29.40;;;;;;5026141;28;20471;-68
2023/12/20 07:38:58;;;;;;;12.00;6.30;;;6.70;29.40;;;;;;5026674;28;20490;-68
2023/12/20 07:41:25;;;;;;;8.67;5.90;;;6.70;29.60;;;;;;5027831;28;20489;-68
2023/12/20 07:43:53;;;;;;;9.40;6.27;;;6.70;29.50;;;;;;5029518;28;20562;-68
2023/12/20 07:46:23;;;;;;;10.00;6.20;;;6.70;29.50;;;;;;5033242;28;20471;-68
2023/12/20 07:48:51;;;;;;;10.20;6.93;;;6.70;29.60;;;;;;5029928;28;20533;-68
2023/12/20 07:51:18;;;;;;;8.67;6.30;;;6.70;29.60;;;;;;5031078;28;20940;-68
2023/12/20 07:53:45;;;;;;;10.50;7.47;;;6.70;29.60;;;;;;5033873;28;20479;-68
2023/12/20 07:56:16;;;;;;;11.07;6.90;;;6.70;29.80;;;;;;5030305;28;20493;-68
2023/12/20 07:58:43;;;;;;;8.90;5.80;;;6.70;29.90;;;;;;5033268;28;20483;-68
2023/12/20 08:01:10;;;;;;;10.80;7.03;;;6.70;29.70;;;;;;5030610;28;20569;-68
2023/12/20 08:03:36;;;;;;;6.87;5.03;;;6.70;30.00;;;;;;5031585;28;20455;-68
2023/12/20 08:06:05;;;;;;;9.00;5.57;;;6.70;30.10;;;;;;5034517;28;20462;-68
2023/12/20 08:08:32;;;;;;;10.10;6.03;;;6.70;30.10;;;;;;5032551;28;20455;-65
2023/12/20 08:11:00;;;;;;;8.83;6.53;;;6.70;30.10;;;;;;5035860;28;20957;-64
2023/12/20 08:13:27;;;;;;;11.87;6.67;;;6.80;30.00;;;;;;5042849;28;20475;-65
2023/12/20 08:15:54;;;;;;;9.90;7.20;;;6.80;29.90;;;;;;5038239;28;20874;-64
2023/12/20 08:18:20;;;;;;;8.83;6.07;;;6.90;29.90;;;;;;5035699;28;20463;-65
2023/12/20 08:20:48;;;;;;;9.37;6.20;;;6.90;30.00;;;;;;5024383;28;20486;-66
2023/12/20 08:23:16;;;;;;;8.90;5.80;;;7.00;29.90;;;;;;5021767;28;21025;-65
2023/12/20 08:25:43;;;;;;;8.07;5.80;;;7.00;29.80;;;;;;5022553;28;20467;-65
2023/12/20 08:28:09;;;;;;;9.30;5.03;;;7.00;29.40;;;;;;5025135;28;20478;-65
2023/12/20 08:30:36;;;;;;;13.00;8.20;;;7.10;29.60;;;;;;5025401;28;20501;-66
2023/12/20 08:33:03;;;;;;;9.00;6.80;;;7.00;29.40;;;;;;5030126;28;20544;-65
2023/12/20 08:35:30;;;;;;;9.93;6.70;;;7.10;29.30;;;;;;5020744;28;20490;-65
2023/12/20 08:37:57;;;;;;;11.10;7.40;;;7.10;29.20;;;;;;5024852;28;20992;-66
2023/12/20 08:40:25;;;;;;;10.00;6.17;;;7.10;29.10;;;;;;5027424;28;20487;-65
2023/12/20 08:42:52;;;;;;;8.40;6.00;;;7.20;29.10;;;;;;5021872;28;20475;-65
2023/12/20 08:45:19;;;;;;;10.33;6.97;;;7.30;28.80;;;;;;5028282;28;20894;-66
2023/12/20 08:47:45;;;;;;;12.63;8.93;;;7.50;28.50;;;;;;5023563;28;20459;-69
2023/12/20 08:50:12;;;;;;;8.90;7.00;;;7.50;28.10;;;;;;5029521;28;20487;-69
2023/12/20 08:52:39;;;;;;;10.03;7.03;;;7.60;27.90;;;;;;5030092;28;20470;-69
2023/12/20 08:55:07;;;;;;;9.80;8.30;;;7.70;27.50;;;;;;5028223;28;20474;-69
2023/12/20 08:57:35;;;;;;;8.60;5.60;;;7.90;27.20;;;;;;5026841;28;20470;-69
2023/12/20 09:00:02;;;;;;;9.67;6.20;;;8.00;26.60;;;;;;5027697;28;20482;-69
2023/12/20 09:02:29;;;;;;;8.30;5.70;;;8.30;27.40;;;;;;5027986;28;20537;-69
2023/12/20 09:04:56;;;;;;;7.47;5.40;;;8.70;26.80;;;;;;5028546;28;21796;-70
2023/12/20 09:07:24;;;;;;;7.90;4.50;;;8.90;24.60;;;;;;5028854;28;20470;-70
2023/12/20 09:09:50;;;;;;;7.60;4.70;;;9.00;23.30;;;;;;5026433;28;20474;-69
2023/12/20 09:12:18;;;;;;;9.60;6.53;;;9.10;23.00;;;;;;5029840;28;20467;-69
2023/12/20 09:14:46;;;;;;;8.90;5.77;;;9.40;22.90;;;;;;5026424;28;20481;-70
2023/12/20 09:17:13;;;;;;;6.60;4.63;;;9.60;21.50;;;;;;5031023;28;20462;-70
2023/12/20 09:19:40;;;;;;;7.80;5.57;;;9.90;21.90;;;;;;5029325;28;20479;-70
2023/12/20 09:22:07;;;;;;;7.27;5.03;;;10.40;21.00;;;;;;5026461;28;20558;-70
2023/12/20 09:24:34;;;;;;;7.53;5.10;;;11.10;18.20;;;;;;5027654;28;20550;-70
2023/12/20 09:27:01;;;;;;;6.87;4.70;;;11.60;16.40;;;;;;5021483;28;20603;-70
2023/12/20 09:29:27;;;;;;;7.10;4.60;;;11.90;15.40;;;;;;5031150;28;20482;-70
2023/12/20 09:31:57;;;;;;;7.00;3.73;;;12.00;14.90;;;;;;5030351;28;20478;-70
2023/12/20 09:34:24;;;;;;;7.10;4.87;;;11.90;14.10;;;;;;5025893;28;20504;-70
2023/12/20 09:36:50;;;;;;;7.90;5.20;;;11.70;14.30;;;;;;5027846;28;20459;-70
2023/12/20 09:39:20;;;;;;;8.30;5.23;;;11.70;14.20;;;;;;5033317;28;20486;-70
2023/12/20 09:41:52;;;;;;;5.67;4.17;;;11.90;14.40;;;;;;5029367;28;20491;-70
2023/12/20 09:44:19;;;;;;;6.97;4.33;;;12.00;13.20;;;;;;5030013;28;20462;-70
2023/12/20 09:46:51;;;;;;;6.80;4.00;;;11.90;12.70;;;;;;5029951;28;20455;-70
2023/12/20 09:49:20;;;;;;;6.33;3.60;;;11.80;12.90;;;;;;5028634;28;20532;-70
2023/12/20 09:51:47;;;;;;;6.50;3.97;;;11.70;13.20;;;;;;5024327;28;21118;-69
2023/12/20 09:54:16;;;;;;;8.20;5.27;;;11.50;13.20;;;;;;5030145;28;20478;-69
2023/12/20 09:56:43;;;;;;;6.77;4.67;;;11.40;13.40;;;;;;5026757;28;21196;-69
2023/12/20 09:59:10;;;;;;;5.80;4.10;;;11.40;13.80;;;;;;5030990;28;20481;-70
2023/12/20 10:01:39;;;;;;;5.80;4.10;;;11.40;13.60;;;;;;5032695;28;20479;-70
2023/12/20 10:04:08;;;;;;;8.07;4.17;;;11.40;13.70;;;;;;5030741;28;20451;-69
2023/12/20 10:06:37;;;;;;;6.43;4.00;;;11.50;14.30;;;;;;5031959;28;20463;-69
2023/12/20 10:09:05;;;;;;;6.50;3.93;;;11.70;14.50;;;;;;5025534;28;20486;-71
2023/12/20 10:11:32;;;;;;;6.60;4.20;;;12.00;14.40;;;;;;5028537;28;20486;-70
2023/12/20 10:14:01;;;;;;;5.43;3.40;;;12.40;13.70;;;;;;5029899;28;20474;-70
2023/12/20 10:16:29;;;;;;;6.40;3.90;;;12.90;12.70;;;;;;5026072;28;20467;-69
2023/12/20 10:18:56;;;;;;;9.00;3.80;;;12.80;11.50;;;;;;5026734;28;20479;-69
2023/12/20 10:21:24;;;;;;;5.50;3.27;;;12.70;11.30;;;;;;5032336;28;20471;-69
2023/12/20 10:23:52;;;;;;;6.67;4.13;;;12.50;11.20;;;;;;5026530;28;20466;-69
2023/12/20 10:26:22;;;;;;;5.40;3.37;;;12.60;11.60;;;;;;5029165;28;20486;-69
2023/12/20 10:28:51;;;;;;;5.57;3.37;;;12.80;11.70;;;;;;5030618;28;20487;-69
2023/12/20 10:31:28;;;;;;;5.80;3.33;;;13.00;11.20;;;;;;5022791;28;20482;-68
2023/12/20 10:33:57;;;;;;;7.13;4.30;;;13.30;10.60;;;;;;5025963;28;21126;-70
2023/12/20 10:36:26;;;;;;;5.30;2.90;;;13.60;10.00;;;;;;5030839;28;20467;-68
2023/12/20 10:38:55;;;;;;;7.00;4.50;;;14.00;9.60;;;;;;5022314;28;20489;-67
2023/12/20 10:41:26;;;;;;;5.20;3.40;;;14.30;8.60;;;;;;5015922;28;20471;-68
2023/12/20 10:43:54;;;;;;;6.03;3.90;;;14.40;7.50;;;;;;5027730;28;20502;-70
2023/12/20 10:46:21;;;;;;;4.30;2.23;;;14.40;6.60;;;;;;5027805;28;20466;-68
2023/12/20 10:48:49;;;;;;;3.93;1.53;;;14.30;6.30;;;;;;5028910;28;20491;-67
2023/12/20 10:51:19;;;;;;;3.47;1.27;;;14.20;6.20;;;;;;5022814;28;20465;-67
2023/12/20 10:53:48;;;;;;;3.20;1.00;;;14.00;6.40;;;;;;5025989;28;20851;-68
2023/12/20 10:56:17;;;;;;;3.30;1.20;;;13.80;6.20;;;;;;5025842;28;20471;-68
2023/12/20 10:58:45;;;;;;;3.20;0.90;;;13.60;5.90;;;;;;5028077;28;20498;-67
2023/12/20 11:01:14;;;;;;;3.43;0.87;;;13.30;6.60;;;;;;5022761;28;20930;-67
2023/12/20 11:03:45;;;;;;;3.10;0.80;;;13.00;7.10;;;;;;5023133;28;20471;-67
2023/12/20 11:06:21;;;;;;;3.07;0.80;;;12.70;6.80;;;;;;5042151;28;20472;-66
2023/12/20 11:08:52;;;;;;;3.60;1.17;;;12.30;7.00;;;;;;5037970;28;20485;-66
2023/12/20 11:11:27;;;;;;;3.10;0.80;;;11.80;7.50;;;;;;5027904;28;21290;-66
2023/12/20 11:13:59;;;;;;;3.33;0.93;;;11.40;8.70;;;;;;5026720;28;21037;-71
2023/12/20 11:16:26;;;;;;;6.30;1.10;;;11.10;9.50;;;;;;5027130;28;20474;-68
2023/12/20 11:18:53;;;;;;;3.87;0.97;;;10.90;9.50;;;;;;5025854;28;20475;-66
2023/12/20 11:21:20;;;;;;;4.33;1.30;;;10.60;10.20;;;;;;5029110;28;20475;-67
2023/12/20 11:23:47;;;;;;;4.50;1.43;;;10.40;10.40;;;;;;5025595;28;20703;-68
2023/12/20 11:26:17;;;;;;;3.70;1.10;;;10.20;11.10;;;;;;5025317;28;21986;-65
2023/12/20 11:28:45;;;;;;;6.27;1.20;;;10.00;11.70;;;;;;5024126;28;20486;-67
2023/12/20 11:31:15;;;;;;;4.87;1.37;;;9.90;11.80;;;;;;5027427;28;20475;-68
2023/12/20 11:33:44;;;;;;;3.50;1.20;;;9.80;12.00;;;;;;5022671;28;20578;-67
2023/12/20 11:36:14;;;;;;;4.53;1.27;;;9.70;12.10;;;;;;5022213;28;20471;-69
2023/12/20 11:38:55;;;;;;;3.73;1.23;;;9.60;12.10;;;;;;5031456;28;21333;-67
2023/12/20 11:41:23;;;;;;;5.37;1.40;;;9.90;13.10;;;;;;5025783;28;20477;-66
2023/12/20 11:43:54;;;;;;;3.30;1.10;;;10.30;11.90;;;;;;5027823;28;20513;-66
2023/12/20 11:46:21;;;;;;;3.33;1.13;;;10.70;11.10;;;;;;5026060;28;20458;-68
2023/12/20 11:48:49;;;;;;;3.80;1.43;;;10.60;10.20;;;;;;5026582;28;20490;-68
2023/12/20 11:51:16;;;;;;;3.43;1.23;;;10.30;10.20;;;;;;5025827;28;20476;-67
2023/12/20 11:53:43;;;;;;;4.10;1.17;;;10.20;10.40;;;;;;5028457;28;20468;-67
2023/12/20 11:56:10;;;;;;;4.00;1.03;;;10.30;10.80;;;;;;5031374;28;20811;-67
2023/12/20 11:58:37;;;;;;;4.63;1.10;;;10.30;11.00;;;;;;5024174;28;20476;-67
2023/12/20 12:01:07;;;;;;;4.77;1.20;;;10.40;10.10;;;;;;5029644;28;20466;-68
2023/12/20 12:03:33;;;;;;;4.23;1.30;;;10.40;10.10;;;;;;5031672;28;20465;-69
2023/12/20 12:06:02;;;;;;;3.80;1.00;;;11.00;9.60;;;;;;5030255;28;20463;-68
2023/12/20 12:08:28;;;;;;;4.27;1.10;;;11.80;8.70;;;;;;5029635;28;20473;-67
2023/12/20 12:10:55;;;;;;;4.23;1.10;;;12.00;7.80;;;;;;5027354;28;20471;-67
2023/12/20 12:13:22;;;;;;;4.77;1.23;;;12.40;7.00;;;;;;5030531;28;21014;-67
2023/12/20 12:15:50;;;;;;;5.63;1.30;;;12.40;5.50;;;;;;5030395;28;20494;-67
2023/12/20 12:18:19;;;;;;;3.97;1.10;;;12.30;5.20;;;;;;5027414;28;20504;-66
2023/12/20 12:20:45;;;;;;;7.60;1.03;;;12.00;5.50;;;;;;5029396;28;20459;-68
2023/12/20 12:23:12;;;;;;;5.10;1.70;;;11.80;5.90;;;;;;5028810;28;20841;-68
2023/12/20 12:25:39;;;;;;;3.53;1.00;;;11.60;5.20;;;;;;5020671;28;20462;-67
2023/12/20 12:28:07;;;;;;;4.10;1.23;;;11.50;5.60;;;;;;5021543;28;20826;-71
2023/12/20 12:30:33;;;;;;;5.10;1.40;;;11.30;6.00;;;;;;5029308;28;20558;-69
2023/12/20 12:33:00;;;;;;;4.20;1.80;;;11.10;6.40;;;;;;5031001;28;20458;-69
2023/12/20 12:35:28;;;;;;;3.70;1.03;;;10.90;6.80;;;;;;5028024;28;20578;-69
2023/12/20 12:37:55;;;;;;;4.37;1.33;;;10.80;7.30;;;;;;5028173;28;20451;-70
2023/12/20 12:40:22;;;;;;;5.03;1.20;;;10.70;7.10;;;;;;5024296;28;20504;-69
2023/12/20 12:42:49;;;;;;;4.40;1.50;;;10.60;7.30;;;;;;5027210;28;20834;-69
2023/12/20 12:45:15;;;;;;;6.17;1.53;;;10.40;7.60;;;;;;5027799;28;20549;-70
2023/12/20 12:47:42;;;;;;;4.00;0.90;;;10.50;7.70;;;;;;5030098;28;20474;-70
2023/12/20 12:50:10;;;;;;;6.10;1.40;;;10.50;7.20;;;;;;5025867;28;20498;-70
2023/12/20 12:52:38;;;;;;;3.77;1.27;;;10.30;7.20;;;;;;5032133;28;20464;-69
2023/12/20 12:55:05;;;;;;;3.80;1.20;;;10.20;7.20;;;;;;5025226;28;21015;-70